createdAt,value
2023-09-16T00:02:23.684Z,277.63
2023-09-16T00:04:50.174Z,265.20
2023-09-16T00:07:16.832Z,257.05
2023-09-16T00:09:43.333Z,241.98
2023-09-16T00:12:09.816Z,242.10
2023-09-16T00:14:36.191Z,243.13
2023-09-16T00:17:02.597Z,248.60
2023-09-16T00:19:29.059Z,273.75
2023-09-16T00:21:55.480Z,313.90
2023-09-16T00:24:21.876Z,272.13
2023-09-16T00:26:48.271Z,279.97
2023-09-16T00:29:14.809Z,274.60
2023-09-16T00:31:41.243Z,282.88
2023-09-16T00:34:07.775Z,255.90
2023-09-16T00:36:34.208Z,266.80
2023-09-16T00:39:00.620Z,254.43
2023-09-16T00:41:27.116Z,253.05
2023-09-16T00:43:53.520Z,265.08
2023-09-16T00:46:19.917Z,258.05
2023-09-16T00:48:46.486Z,281.73
2023-09-16T00:51:13.066Z,294.63
2023-09-16T00:53:39.839Z,267.05
2023-09-16T00:56:06.272Z,257.35
2023-09-16T00:58:32.778Z,252.32
2023-09-16T01:00:59.265Z,245.10
2023-09-16T01:03:25.873Z,243.40
2023-09-16T01:05:52.535Z,248.82
2023-09-16T01:08:18.980Z,256.63
2023-09-16T01:10:45.441Z,254.20
2023-09-16T01:13:11.953Z,259.90
2023-09-16T01:15:48.001Z,248.47
2023-09-16T01:18:14.381Z,253.43
2023-09-16T01:20:41.075Z,254.88
2023-09-16T01:23:08.089Z,268.77
2023-09-16T01:25:34.499Z,270.38
2023-09-16T01:28:00.947Z,254.07
2023-09-16T01:30:28.564Z,260.75
2023-09-16T01:32:58.508Z,307.98
2023-09-16T01:35:25.306Z,300.30
2023-09-16T01:37:53.158Z,269.17
2023-09-16T01:40:22.376Z,291.40
2023-09-16T01:42:48.882Z,314.00
2023-09-16T01:45:15.746Z,274.00
2023-09-16T01:47:42.572Z,268.00
2023-09-16T01:50:09.141Z,258.98
2023-09-16T01:52:35.555Z,301.40
2023-09-16T01:55:02.011Z,257.67
2023-09-16T01:57:28.534Z,254.02
2023-09-16T01:59:54.987Z,279.10
2023-09-16T02:02:21.432Z,262.80
2023-09-16T02:04:47.807Z,255.83
2023-09-16T02:07:14.277Z,279.25
2023-09-16T02:09:41.545Z,244.00
2023-09-16T02:12:07.974Z,249.20
2023-09-16T02:14:37.320Z,260.65
2023-09-16T02:17:03.732Z,256.67
2023-09-16T02:19:30.195Z,249.75
2023-09-16T02:21:56.731Z,247.30
2023-09-16T02:24:23.231Z,226.45
2023-09-16T02:26:49.633Z,226.75
2023-09-16T02:29:16.041Z,230.40
2023-09-16T02:31:42.565Z,222.73
2023-09-16T02:34:09.065Z,224.95
2023-09-16T02:36:35.621Z,224.85
2023-09-16T02:39:02.025Z,232.50
2023-09-16T02:41:28.425Z,233.53
2023-09-16T02:43:54.923Z,241.68
2023-09-16T02:46:21.376Z,264.58
2023-09-16T02:48:48.077Z,251.73
2023-09-16T02:51:14.888Z,254.13
2023-09-16T02:53:41.258Z,244.93
2023-09-16T02:56:07.692Z,229.70
2023-09-16T02:58:34.093Z,221.85
2023-09-16T03:01:00.630Z,225.18
2023-09-16T03:03:27.188Z,233.07
2023-09-16T03:05:53.714Z,236.77
2023-09-16T03:08:20.100Z,251.40
2023-09-16T03:10:46.465Z,242.38
2023-09-16T03:13:13.069Z,233.13
2023-09-16T03:15:45.864Z,232.07
2023-09-16T03:18:12.272Z,231.73
2023-09-16T03:20:38.753Z,223.88
2023-09-16T03:23:05.247Z,222.60
2023-09-16T03:25:31.691Z,233.32
2023-09-16T03:27:58.257Z,229.40
2023-09-16T03:30:24.728Z,240.10
2023-09-16T03:32:51.220Z,240.63
2023-09-16T03:35:17.659Z,236.50
2023-09-16T03:37:44.058Z,226.82
2023-09-16T03:40:10.520Z,220.23
2023-09-16T03:42:37.051Z,215.33
2023-09-16T03:45:09.526Z,220.15
2023-09-16T03:47:41.920Z,217.90
2023-09-16T03:50:08.386Z,219.50
2023-09-16T03:52:34.818Z,217.63
2023-09-16T03:55:01.293Z,219.97
2023-09-16T03:57:27.717Z,214.02
2023-09-16T03:59:54.096Z,216.93
2023-09-16T04:02:20.595Z,220.95
2023-09-16T04:04:46.989Z,222.15
2023-09-16T04:07:13.420Z,221.90
2023-09-16T04:09:39.850Z,218.45
2023-09-16T04:12:06.472Z,230.45
2023-09-16T04:14:32.885Z,228.65
2023-09-16T04:16:59.422Z,233.50
2023-09-16T04:19:25.825Z,228.90
2023-09-16T04:21:52.186Z,220.35
2023-09-16T04:24:20.189Z,223.68
2023-09-16T04:26:46.583Z,221.63
2023-09-16T04:29:13.969Z,223.05
2023-09-16T04:31:41.883Z,228.53
2023-09-16T04:34:08.338Z,222.30
2023-09-16T04:36:34.795Z,223.13
2023-09-16T04:39:01.245Z,222.32
2023-09-16T04:41:27.701Z,225.68
2023-09-16T04:43:54.265Z,223.13
2023-09-16T04:46:20.693Z,227.93
2023-09-16T04:48:47.417Z,231.65
2023-09-16T04:51:14.079Z,230.57
2023-09-16T04:53:40.659Z,234.35
2023-09-16T04:56:07.062Z,236.37
2023-09-16T04:58:33.660Z,241.60
2023-09-16T05:01:00.640Z,245.07
2023-09-16T05:03:27.339Z,242.65
2023-09-16T05:05:53.864Z,246.15
2023-09-16T05:08:21.065Z,251.77
2023-09-16T05:10:53.132Z,242.35
2023-09-16T05:13:19.553Z,242.73
2023-09-16T05:15:49.415Z,233.10
2023-09-16T05:18:15.876Z,235.18
2023-09-16T05:20:42.249Z,245.43
2023-09-16T05:23:09.079Z,249.65
2023-09-16T05:25:35.500Z,256.00
2023-09-16T05:28:01.938Z,242.98
2023-09-16T05:30:28.429Z,233.00
2023-09-16T05:32:55.047Z,261.70
2023-09-16T05:35:21.442Z,211.63
2023-09-16T05:37:48.103Z,198.63
2023-09-16T05:40:14.552Z,149.45
2023-09-16T05:42:40.985Z,107.72
2023-09-16T05:45:07.744Z,81.33
2023-09-16T05:47:34.290Z,53.40
2023-09-16T05:50:00.823Z,79.80
2023-09-16T05:52:27.299Z,42.17
2023-09-16T05:54:53.702Z,32.40
2023-09-16T05:57:20.115Z,31.63
2023-09-16T05:59:46.584Z,33.72
2023-09-16T06:02:12.984Z,63.28
2023-09-16T06:04:39.387Z,44.05
2023-09-16T06:07:05.947Z,29.17
2023-09-16T06:09:32.417Z,28.93
2023-09-16T06:11:58.798Z,24.23
2023-09-16T06:14:25.240Z,30.08
2023-09-16T06:16:51.769Z,28.88
2023-09-16T06:19:18.256Z,26.27
2023-09-16T06:21:44.793Z,32.93
2023-09-16T06:24:11.215Z,41.20
2023-09-16T06:26:37.640Z,33.65
2023-09-16T06:29:04.082Z,33.90
2023-09-16T06:31:30.784Z,38.90
2023-09-16T06:33:57.303Z,39.67
2023-09-16T06:36:23.918Z,37.15
2023-09-16T06:38:50.669Z,39.72
2023-09-16T06:41:17.369Z,33.03
2023-09-16T06:43:43.796Z,32.45
2023-09-16T06:46:10.339Z,27.97
2023-09-16T06:48:36.884Z,28.58
2023-09-16T06:51:03.396Z,29.13
2023-09-16T06:53:29.764Z,26.77
2023-09-16T06:55:56.153Z,31.48
2023-09-16T06:58:22.659Z,45.97
2023-09-16T07:00:49.139Z,47.83
2023-09-16T07:03:15.559Z,27.58
2023-09-16T07:05:48.848Z,27.85
2023-09-16T07:08:18.647Z,32.38
2023-09-16T07:10:45.178Z,41.20
2023-09-16T07:13:11.710Z,24.95
2023-09-16T07:15:38.241Z,30.00
2023-09-16T07:18:04.905Z,24.15
2023-09-16T07:20:31.648Z,31.80
2023-09-16T07:22:58.052Z,52.47
2023-09-16T07:25:24.468Z,97.38
2023-09-16T07:27:52.827Z,175.55
2023-09-16T07:30:20.989Z,128.70
2023-09-16T07:32:47.481Z,107.28
2023-09-16T07:35:13.943Z,105.53
2023-09-16T07:37:40.369Z,110.55
2023-09-16T07:40:07.140Z,171.95
2023-09-16T07:42:33.587Z,176.38
2023-09-16T07:44:59.980Z,141.55
2023-09-16T07:47:26.388Z,147.77
2023-09-16T07:49:52.816Z,130.82
2023-09-16T07:52:19.247Z,115.45
2023-09-16T07:54:45.729Z,94.57
2023-09-16T07:57:12.260Z,73.90
2023-09-16T07:59:38.768Z,85.87
2023-09-16T08:02:05.182Z,85.60
2023-09-16T08:04:31.722Z,66.57
2023-09-16T08:06:58.752Z,67.57
2023-09-16T08:09:25.621Z,79.38
2023-09-16T08:11:52.291Z,95.27
2023-09-16T08:14:18.701Z,90.70
2023-09-16T08:16:45.145Z,92.88
2023-09-16T08:19:12.150Z,84.15
2023-09-16T08:21:38.560Z,82.47
2023-09-16T08:24:05.020Z,98.33
2023-09-16T08:26:31.535Z,121.20
2023-09-16T08:28:58.013Z,103.72
2023-09-16T08:31:24.407Z,102.93
2023-09-16T08:33:50.954Z,91.97
2023-09-16T08:36:17.356Z,86.70
2023-09-16T08:38:43.736Z,58.40
2023-09-16T08:41:21.254Z,52.83
2023-09-16T08:43:48.672Z,35.17
2023-09-16T08:46:16.601Z,32.08
2023-09-16T08:48:43.407Z,36.47
2023-09-16T08:51:12.119Z,52.83
2023-09-16T08:53:39.147Z,29.48
2023-09-16T08:56:06.138Z,27.42
2023-09-16T08:58:35.644Z,28.55
2023-09-16T09:01:02.623Z,24.07
2023-09-16T09:03:33.038Z,22.45
2023-09-16T09:05:59.665Z,23.48
2023-09-16T09:08:26.078Z,20.77
2023-09-16T09:10:52.595Z,18.83
2023-09-16T09:13:20.012Z,19.03
2023-09-16T09:15:46.618Z,66.65
2023-09-16T09:18:13.121Z,21.67
2023-09-16T09:20:39.635Z,22.90
2023-09-16T09:23:06.132Z,23.48
2023-09-16T09:25:32.653Z,25.80
2023-09-16T09:27:59.208Z,19.23
2023-09-16T09:30:25.962Z,18.67
2023-09-16T09:32:52.486Z,19.88
2023-09-16T09:35:21.652Z,20.88
2023-09-16T09:37:48.544Z,21.77
2023-09-16T09:40:15.147Z,24.23
2023-09-16T09:42:43.633Z,27.27
2023-09-16T09:45:10.589Z,29.48
2023-09-16T09:47:37.576Z,34.25
2023-09-16T09:50:04.955Z,36.70
2023-09-16T09:52:31.894Z,43.70
2023-09-16T09:54:58.749Z,37.83
2023-09-16T09:57:25.937Z,48.50
2023-09-16T09:59:52.428Z,43.58
2023-09-16T10:02:18.939Z,56.67
2023-09-16T10:04:45.319Z,74.03
2023-09-16T10:07:11.728Z,83.60
2023-09-16T10:09:38.257Z,86.35
2023-09-16T10:12:04.803Z,73.40
2023-09-16T10:14:31.490Z,55.93
2023-09-16T10:16:58.068Z,55.80
2023-09-16T10:19:24.574Z,64.45
2023-09-16T10:21:51.026Z,68.90
2023-09-16T10:24:17.518Z,69.30
2023-09-16T10:26:43.965Z,89.00
2023-09-16T10:29:11.518Z,71.22
2023-09-16T10:31:39.127Z,58.53
2023-09-16T10:34:05.695Z,56.17
2023-09-16T10:36:33.572Z,57.50
2023-09-16T10:39:01.880Z,61.70
2023-09-16T10:41:28.571Z,49.70
2023-09-16T10:43:55.097Z,38.90
2023-09-16T10:46:22.172Z,40.00
2023-09-16T10:48:48.975Z,37.97
2023-09-16T10:51:19.367Z,35.40
2023-09-16T10:53:47.876Z,34.60
2023-09-16T10:56:22.772Z,34.28
2023-09-16T10:58:51.226Z,38.60
2023-09-16T11:01:38.966Z,37.10
2023-09-16T11:04:28.429Z,40.93
2023-09-16T11:06:55.193Z,47.67
2023-09-16T11:09:22.054Z,50.08
2023-09-16T11:11:52.199Z,57.45
2023-09-16T11:14:21.097Z,78.20
2023-09-16T11:16:51.924Z,93.00
2023-09-16T11:19:22.637Z,110.97
2023-09-16T11:21:49.303Z,111.47
2023-09-16T11:24:15.718Z,100.25
2023-09-16T11:26:42.199Z,123.55
2023-09-16T11:29:18.903Z,112.20
2023-09-16T11:31:45.391Z,101.53
2023-09-16T11:34:12.401Z,112.32
2023-09-16T11:36:42.307Z,106.78
2023-09-16T11:39:08.665Z,113.18
2023-09-16T11:41:35.081Z,141.70
2023-09-16T11:44:01.570Z,140.90
2023-09-16T11:46:28.063Z,162.95
2023-09-16T11:48:55.741Z,282.02
2023-09-16T11:51:23.538Z,311.67
2023-09-16T11:53:50.535Z,317.90
2023-09-16T11:56:17.975Z,236.13
2023-09-16T11:58:44.980Z,299.27
2023-09-16T12:01:19.642Z,189.93
2023-09-16T12:03:46.339Z,187.93
2023-09-16T12:06:12.801Z,185.23
2023-09-16T12:08:40.613Z,138.50
2023-09-16T12:11:07.221Z,118.13
2023-09-16T12:13:33.684Z,87.25
2023-09-16T12:16:00.327Z,89.90
2023-09-16T12:18:27.515Z,86.53
2023-09-16T12:20:53.943Z,86.22
2023-09-16T12:23:20.403Z,92.50
2023-09-16T12:25:46.920Z,72.47
2023-09-16T12:28:23.353Z,79.70
2023-09-16T12:30:51.198Z,79.93
2023-09-16T12:33:20.862Z,77.25
2023-09-16T12:35:47.651Z,77.50
2023-09-16T12:38:15.020Z,76.68
2023-09-16T12:40:41.506Z,80.32
2023-09-16T12:43:08.300Z,76.80
2023-09-16T12:45:35.580Z,81.20
2023-09-16T12:48:02.277Z,77.30
2023-09-16T12:50:28.773Z,78.80
2023-09-16T12:52:55.442Z,74.13
2023-09-16T12:55:24.763Z,95.80
2023-09-16T12:57:52.247Z,78.28
2023-09-16T13:00:22.095Z,76.28
2023-09-16T13:02:48.594Z,58.92
2023-09-16T13:05:16.091Z,54.10
2023-09-16T13:07:43.555Z,57.37
2023-09-16T13:10:10.208Z,62.70
2023-09-16T13:12:36.690Z,64.32
2023-09-16T13:15:03.659Z,69.68
2023-09-16T13:17:32.627Z,65.28
2023-09-16T13:19:59.099Z,75.50
2023-09-16T13:22:25.634Z,69.20
2023-09-16T13:24:52.109Z,72.60
2023-09-16T13:27:19.020Z,72.30
2023-09-16T13:29:45.571Z,74.90
2023-09-16T13:32:11.984Z,72.63
2023-09-16T13:34:39.284Z,75.15
2023-09-16T13:37:05.814Z,76.43
2023-09-16T13:39:47.196Z,81.85
2023-09-16T13:42:14.073Z,84.93
2023-09-16T13:44:44.349Z,79.40
2023-09-16T13:47:12.625Z,74.00
2023-09-16T13:49:41.105Z,73.50
2023-09-16T13:52:07.565Z,76.65
2023-09-16T13:54:33.980Z,76.32
2023-09-16T13:57:00.452Z,77.13
2023-09-16T13:59:26.877Z,79.22
2023-09-16T14:01:53.301Z,82.32
2023-09-16T14:04:20.747Z,82.20
2023-09-16T14:06:47.138Z,82.18
2023-09-16T14:09:14.126Z,81.50
2023-09-16T14:11:40.586Z,85.57
2023-09-16T14:14:06.994Z,83.50
2023-09-16T14:16:33.420Z,95.82
2023-09-16T14:19:00.613Z,104.38
2023-09-16T14:21:27.280Z,95.83
2023-09-16T14:23:53.776Z,96.40
2023-09-16T14:26:20.268Z,98.25
2023-09-16T14:28:46.839Z,96.88
2023-09-16T14:31:13.238Z,95.88
2023-09-16T14:33:39.776Z,100.03
2023-09-16T14:36:06.227Z,98.95
2023-09-16T14:38:32.618Z,135.43
2023-09-16T14:41:02.905Z,247.10
2023-09-16T14:43:29.390Z,269.60
2023-09-16T14:45:56.624Z,256.93
2023-09-16T14:48:23.266Z,248.40
2023-09-16T14:50:56.108Z,258.30
2023-09-16T14:53:22.576Z,238.18
2023-09-16T14:55:49.321Z,202.95
2023-09-16T14:58:15.813Z,157.77
2023-09-16T15:00:45.148Z,166.77
2023-09-16T15:03:11.686Z,160.27
2023-09-16T15:05:38.175Z,148.13
2023-09-16T15:08:04.742Z,138.25
2023-09-16T15:10:31.282Z,141.10
2023-09-16T15:12:57.788Z,145.55
2023-09-16T15:15:24.211Z,156.20
2023-09-16T15:17:50.711Z,149.05
2023-09-16T15:20:17.164Z,148.23
2023-09-16T15:22:43.651Z,154.17
2023-09-16T15:25:10.324Z,203.77
2023-09-16T15:27:36.740Z,203.00
2023-09-16T15:30:03.417Z,219.95
2023-09-16T15:32:45.412Z,213.93
2023-09-16T15:35:12.859Z,223.67
2023-09-16T15:37:39.322Z,225.75
2023-09-16T15:40:05.973Z,231.60
2023-09-16T15:42:32.436Z,239.13
2023-09-16T15:44:58.982Z,234.20
2023-09-16T15:47:25.434Z,257.50
2023-09-16T15:49:51.848Z,250.45
2023-09-16T15:52:18.321Z,255.65
2023-09-16T15:54:44.724Z,257.67
2023-09-16T15:57:11.113Z,263.88
2023-09-16T15:59:38.976Z,260.43
2023-09-16T16:02:05.510Z,249.20
2023-09-16T16:04:32.088Z,261.60
2023-09-16T16:06:58.635Z,265.42
2023-09-16T16:09:25.054Z,262.25
2023-09-16T16:11:51.468Z,256.07
2023-09-16T16:14:17.884Z,260.20
2023-09-16T16:16:44.527Z,261.77
2023-09-16T16:19:11.011Z,257.40
2023-09-16T16:21:38.200Z,259.10
2023-09-16T16:24:05.906Z,266.30
2023-09-16T16:26:32.284Z,256.75
2023-09-16T16:28:58.810Z,257.80
2023-09-16T16:31:25.463Z,257.60
2023-09-16T16:33:52.282Z,259.25
2023-09-16T16:36:18.883Z,256.60
2023-09-16T16:38:45.549Z,264.08
2023-09-16T16:41:11.982Z,264.30
2023-09-16T16:43:38.417Z,262.52
2023-09-16T16:46:05.041Z,257.90
2023-09-16T16:48:31.487Z,241.17
2023-09-16T16:50:58.000Z,260.20
2023-09-16T16:53:24.381Z,344.30
2023-09-16T16:55:50.782Z,366.35
2023-09-16T16:58:17.275Z,364.05
2023-09-16T17:00:44.816Z,332.00
2023-09-16T17:03:11.225Z,327.52
2023-09-16T17:05:37.777Z,321.63
2023-09-16T17:08:04.280Z,324.35
2023-09-16T17:10:30.848Z,337.10
2023-09-16T17:12:57.471Z,337.80
2023-09-16T17:15:23.914Z,326.40
2023-09-16T17:17:50.346Z,324.58
2023-09-16T17:20:16.773Z,235.50
2023-09-16T17:22:43.174Z,244.65
2023-09-16T17:25:09.569Z,238.53
2023-09-16T17:27:37.627Z,240.57
2023-09-16T17:30:06.663Z,236.55
2023-09-16T17:32:33.239Z,240.00
2023-09-16T17:35:00.624Z,237.18
2023-09-16T17:37:27.429Z,236.93
2023-09-16T17:39:53.837Z,238.27
2023-09-16T17:42:21.940Z,240.10
2023-09-16T17:44:48.489Z,236.38
2023-09-16T17:47:14.891Z,238.95
2023-09-16T17:49:41.726Z,239.00
2023-09-16T17:52:08.246Z,241.07
2023-09-16T17:54:34.630Z,244.40
2023-09-16T17:57:01.075Z,250.07
2023-09-16T17:59:27.515Z,240.48
2023-09-16T18:01:54.066Z,238.73
2023-09-16T18:04:20.603Z,240.60
2023-09-16T18:06:47.225Z,233.20
2023-09-16T18:09:13.610Z,232.43
2023-09-16T18:11:40.113Z,234.80
2023-09-16T18:14:06.531Z,237.23
2023-09-16T18:16:33.081Z,238.23
2023-09-16T18:18:59.676Z,236.82
2023-09-16T18:21:26.135Z,240.02
2023-09-16T18:23:52.529Z,238.35
2023-09-16T18:26:19.502Z,240.17
2023-09-16T18:28:45.896Z,235.98
2023-09-16T18:31:12.654Z,237.55
2023-09-16T18:33:39.211Z,236.77
2023-09-16T18:36:05.648Z,240.85
2023-09-16T18:38:32.026Z,240.83
2023-09-16T18:40:58.456Z,241.95
2023-09-16T18:43:24.902Z,240.93
2023-09-16T18:45:51.385Z,256.13
2023-09-16T18:48:18.102Z,215.40
2023-09-16T18:50:44.573Z,245.50
2023-09-16T18:53:11.482Z,237.30
2023-09-16T18:55:37.932Z,236.63
2023-09-16T18:58:04.493Z,236.80
2023-09-16T19:00:30.917Z,305.58
2023-09-16T19:02:57.434Z,319.80
2023-09-16T19:05:23.900Z,320.50
2023-09-16T19:07:50.434Z,323.33
2023-09-16T19:10:17.025Z,307.92
2023-09-16T19:12:44.036Z,315.48
2023-09-16T19:15:10.720Z,330.37
2023-09-16T19:17:37.261Z,324.65
2023-09-16T19:20:04.479Z,318.33
2023-09-16T19:22:31.325Z,275.20
2023-09-16T19:24:57.776Z,281.48
2023-09-16T19:27:24.185Z,283.37
2023-09-16T19:29:51.990Z,294.10
2023-09-16T19:32:18.597Z,298.52
2023-09-16T19:34:45.035Z,305.88
2023-09-16T19:37:11.472Z,311.63
2023-09-16T19:39:37.973Z,311.83
2023-09-16T19:42:06.019Z,313.85
2023-09-16T19:44:32.516Z,313.55
2023-09-16T19:46:59.048Z,318.20
2023-09-16T19:49:26.700Z,339.63
2023-09-16T19:51:53.118Z,355.90
2023-09-16T19:54:19.597Z,360.95
2023-09-16T19:57:02.263Z,366.10
2023-09-16T19:59:30.186Z,308.08
2023-09-16T20:01:56.714Z,312.77
2023-09-16T20:04:23.317Z,316.80
2023-09-16T20:06:49.826Z,363.20
2023-09-16T20:09:16.195Z,330.70
2023-09-16T20:11:42.606Z,338.67
2023-09-16T20:14:09.079Z,394.52
2023-09-16T20:16:35.554Z,416.30
2023-09-16T20:19:02.025Z,370.83
2023-09-16T20:21:28.557Z,325.15
2023-09-16T20:23:54.952Z,314.48
2023-09-16T20:26:21.397Z,316.48
2023-09-16T20:28:48.464Z,309.17
2023-09-16T20:31:15.094Z,310.25
2023-09-16T20:33:41.621Z,309.20
2023-09-16T20:36:08.319Z,301.52
2023-09-16T20:38:34.759Z,296.83
2023-09-16T20:41:01.155Z,290.07
2023-09-16T20:43:27.587Z,295.02
2023-09-16T20:45:54.442Z,285.45
2023-09-16T20:48:20.974Z,283.15
2023-09-16T20:50:47.772Z,324.65
2023-09-16T20:53:14.166Z,315.17
2023-09-16T20:55:40.605Z,300.20
2023-09-16T20:58:07.150Z,300.90
2023-09-16T21:00:33.536Z,300.65
2023-09-16T21:02:59.986Z,306.27
2023-09-16T21:05:26.484Z,295.93
2023-09-16T21:07:52.984Z,302.75
2023-09-16T21:10:19.371Z,303.23
2023-09-16T21:12:46.575Z,307.02
2023-09-16T21:15:13.133Z,301.42
2023-09-16T21:17:40.419Z,297.87
2023-09-16T21:20:07.143Z,297.55
2023-09-16T21:22:33.516Z,299.10
2023-09-16T21:24:59.980Z,302.23
2023-09-16T21:27:26.437Z,301.85
2023-09-16T21:29:53.758Z,299.87
2023-09-16T21:32:20.226Z,303.63
2023-09-16T21:34:46.708Z,299.67
2023-09-16T21:37:13.653Z,286.50
2023-09-16T21:39:40.060Z,293.50
2023-09-16T21:42:06.869Z,298.63
2023-09-16T21:44:33.406Z,311.05
2023-09-16T21:46:59.805Z,313.77
2023-09-16T21:49:26.326Z,314.27
2023-09-16T21:51:52.761Z,311.95
2023-09-16T21:54:19.159Z,310.13
2023-09-16T21:56:45.611Z,304.85
2023-09-16T21:59:11.982Z,306.02
2023-09-16T22:01:38.431Z,318.77
2023-09-16T22:04:05.304Z,305.40
2023-09-16T22:06:31.983Z,304.03
2023-09-16T22:08:58.387Z,304.85
2023-09-16T22:11:24.897Z,305.05
2023-09-16T22:13:51.501Z,304.02
2023-09-16T22:16:18.121Z,306.10
2023-09-16T22:18:44.645Z,309.10
2023-09-16T22:21:11.087Z,307.08
2023-09-16T22:23:37.476Z,310.02
2023-09-16T22:26:04.762Z,310.38
2023-09-16T22:28:31.165Z,306.75
2023-09-16T22:30:57.657Z,305.87
2023-09-16T22:33:24.589Z,311.23
2023-09-16T22:35:51.172Z,313.90
2023-09-16T22:38:17.637Z,310.73
2023-09-16T22:40:44.077Z,305.05
2023-09-16T22:43:10.581Z,300.87
2023-09-16T22:45:37.000Z,305.42
2023-09-16T22:48:03.562Z,303.70
2023-09-16T22:50:30.008Z,303.83
2023-09-16T22:52:56.401Z,299.90
2023-09-16T22:55:22.992Z,298.83
2023-09-16T22:57:49.422Z,297.20
2023-09-16T23:00:16.026Z,303.05
2023-09-16T23:02:42.604Z,304.50
2023-09-16T23:05:09.382Z,302.33
2023-09-16T23:07:35.809Z,297.93
2023-09-16T23:10:02.239Z,301.52
2023-09-16T23:12:28.607Z,306.10
2023-09-16T23:14:54.980Z,305.58
2023-09-16T23:17:21.444Z,302.05
2023-09-16T23:19:48.063Z,307.87
2023-09-16T23:22:14.506Z,302.05
2023-09-16T23:24:40.958Z,296.17
2023-09-16T23:27:07.345Z,297.88
2023-09-16T23:29:33.933Z,300.55
2023-09-16T23:32:00.512Z,300.10
2023-09-16T23:34:26.949Z,305.23
2023-09-16T23:36:53.375Z,299.98
2023-09-16T23:39:19.850Z,298.67
2023-09-16T23:41:46.295Z,304.15
2023-09-16T23:44:12.673Z,299.57
2023-09-16T23:46:39.189Z,295.02
2023-09-16T23:49:05.627Z,294.40
2023-09-16T23:51:32.043Z,296.67
2023-09-16T23:53:58.862Z,298.00
2023-09-16T23:56:25.791Z,295.77
2023-09-16T23:58:52.188Z,296.85
